sensor_id;sensor_type;location;lat;lon;timestamp;P1;durP1;ratioP1;P2;durP2;ratioP2
417;SDS011;49;48.530;9.200;2024-01-30T00:01:11;19.63;;;11.40;;
417;SDS011;49;48.530;9.200;2024-01-30T00:03:38;22.43;;;12.30;;
417;SDS011;49;48.530;9.200;2024-01-30T00:06:05;23.17;;;11.47;;
417;SDS011;49;48.530;9.200;2024-01-30T00:08:33;22.53;;;12.10;;
417;SDS011;49;48.530;9.200;2024-01-30T00:11:01;24.13;;;10.20;;
417;SDS011;49;48.530;9.200;2024-01-30T00:13:28;17.07;;;10.43;;
417;SDS011;49;48.530;9.200;2024-01-30T00:15:54;21.23;;;12.70;;
417;SDS011;49;48.530;9.200;2024-01-30T00:18:21;18.00;;;10.20;;
417;SDS011;49;48.530;9.200;2024-01-30T00:20:48;23.17;;;10.43;;
417;SDS011;49;48.530;9.200;2024-01-30T00:23:15;23.30;;;12.37;;
417;SDS011;49;48.530;9.200;2024-01-30T00:25:42;15.77;;;9.60;;
417;SDS011;49;48.530;9.200;2024-01-30T00:28:10;16.37;;;11.40;;
417;SDS011;49;48.530;9.200;2024-01-30T00:30:37;18.73;;;9.80;;
417;SDS011;49;48.530;9.200;2024-01-30T00:33:04;19.63;;;10.30;;
417;SDS011;49;48.530;9.200;2024-01-30T00:35:31;20.07;;;11.00;;
417;SDS011;49;48.530;9.200;2024-01-30T00:37:57;17.30;;;11.23;;
417;SDS011;49;48.530;9.200;2024-01-30T00:40:24;16.83;;;10.87;;
417;SDS011;49;48.530;9.200;2024-01-30T00:42:51;17.17;;;11.80;;
417;SDS011;49;48.530;9.200;2024-01-30T00:45:19;48.70;;;17.43;;
417;SDS011;49;48.530;9.200;2024-01-30T00:47:46;31.53;;;13.27;;
417;SDS011;49;48.530;9.200;2024-01-30T00:50:14;86.17;;;26.27;;
417;SDS011;49;48.530;9.200;2024-01-30T00:52:40;33.80;;;15.17;;
417;SDS011;49;48.530;9.200;2024-01-30T00:55:10;22.10;;;12.20;;
417;SDS011;49;48.530;9.200;2024-01-30T00:57:37;25.90;;;12.03;;
417;SDS011;49;48.530;9.200;2024-01-30T01:00:04;25.30;;;12.60;;
417;SDS011;49;48.530;9.200;2024-01-30T01:02:35;28.60;;;13.50;;
417;SDS011;49;48.530;9.200;2024-01-30T01:05:02;16.20;;;10.47;;
417;SDS011;49;48.530;9.200;2024-01-30T01:07:29;22.30;;;12.60;;
417;SDS011;49;48.530;9.200;2024-01-30T01:09:56;23.13;;;11.70;;
417;SDS011;49;48.530;9.200;2024-01-30T01:12:23;17.03;;;11.00;;
417;SDS011;49;48.530;9.200;2024-01-30T01:14:50;18.63;;;11.33;;
417;SDS011;49;48.530;9.200;2024-01-30T01:17:17;19.40;;;10.43;;
417;SDS011;49;48.530;9.200;2024-01-30T01:19:45;21.23;;;10.83;;
417;SDS011;49;48.530;9.200;2024-01-30T01:22:12;16.50;;;10.00;;
417;SDS011;49;48.530;9.200;2024-01-30T01:24:39;19.43;;;9.80;;
417;SDS011;49;48.530;9.200;2024-01-30T01:27:06;16.90;;;9.97;;
417;SDS011;49;48.530;9.200;2024-01-30T01:29:33;18.17;;;10.73;;
417;SDS011;49;48.530;9.200;2024-01-30T01:32:00;16.50;;;10.40;;
417;SDS011;49;48.530;9.200;2024-01-30T01:34:26;13.57;;;9.73;;
417;SDS011;49;48.530;9.200;2024-01-30T01:36:55;19.30;;;10.87;;
417;SDS011;49;48.530;9.200;2024-01-30T01:39:22;23.47;;;11.77;;
417;SDS011;49;48.530;9.200;2024-01-30T01:41:49;19.07;;;10.27;;
417;SDS011;49;48.530;9.200;2024-01-30T01:44:17;19.90;;;10.30;;
417;SDS011;49;48.530;9.200;2024-01-30T01:46:44;20.17;;;10.73;;
417;SDS011;49;48.530;9.200;2024-01-30T01:49:11;17.33;;;11.17;;
417;SDS011;49;48.530;9.200;2024-01-30T01:51:40;16.73;;;9.93;;
417;SDS011;49;48.530;9.200;2024-01-30T01:54:11;16.83;;;9.80;;
417;SDS011;49;48.530;9.200;2024-01-30T01:56:38;16.57;;;9.20;;
417;SDS011;49;48.530;9.200;2024-01-30T01:59:06;19.10;;;9.57;;
417;SDS011;49;48.530;9.200;2024-01-30T02:01:33;14.57;;;9.07;;
417;SDS011;49;48.530;9.200;2024-01-30T02:04:02;15.33;;;9.00;;
417;SDS011;49;48.530;9.200;2024-01-30T02:06:29;15.50;;;8.80;;
417;SDS011;49;48.530;9.200;2024-01-30T02:08:57;16.23;;;9.00;;
417;SDS011;49;48.530;9.200;2024-01-30T02:11:25;18.13;;;9.77;;
417;SDS011;49;48.530;9.200;2024-01-30T02:13:52;15.33;;;10.17;;
417;SDS011;49;48.530;9.200;2024-01-30T02:16:19;15.27;;;9.33;;
417;SDS011;49;48.530;9.200;2024-01-30T02:18:46;14.10;;;9.43;;
417;SDS011;49;48.530;9.200;2024-01-30T02:21:15;16.40;;;9.60;;
417;SDS011;49;48.530;9.200;2024-01-30T02:23:43;14.63;;;8.80;;
417;SDS011;49;48.530;9.200;2024-01-30T02:26:10;16.47;;;9.50;;
417;SDS011;49;48.530;9.200;2024-01-30T02:28:38;14.60;;;9.27;;
417;SDS011;49;48.530;9.200;2024-01-30T02:31:05;13.23;;;8.90;;
417;SDS011;49;48.530;9.200;2024-01-30T02:33:31;15.80;;;9.07;;
417;SDS011;49;48.530;9.200;2024-01-30T02:35:58;15.53;;;9.83;;
417;SDS011;49;48.530;9.200;2024-01-30T02:38:27;15.53;;;8.83;;
417;SDS011;49;48.530;9.200;2024-01-30T02:40:54;18.60;;;10.10;;
417;SDS011;49;48.530;9.200;2024-01-30T02:43:21;23.10;;;10.80;;
417;SDS011;49;48.530;9.200;2024-01-30T02:45:48;21.20;;;11.03;;
417;SDS011;49;48.530;9.200;2024-01-30T02:48:15;18.30;;;10.30;;
417;SDS011;49;48.530;9.200;2024-01-30T02:50:42;15.80;;;10.50;;
417;SDS011;49;48.530;9.200;2024-01-30T02:53:09;17.80;;;11.00;;
417;SDS011;49;48.530;9.200;2024-01-30T02:55:38;22.50;;;11.20;;
417;SDS011;49;48.530;9.200;2024-01-30T02:58:04;21.00;;;11.03;;
417;SDS011;49;48.530;9.200;2024-01-30T03:00:31;18.13;;;10.57;;
417;SDS011;49;48.530;9.200;2024-01-30T03:02:58;17.23;;;10.20;;
417;SDS011;49;48.530;9.200;2024-01-30T03:05:25;19.40;;;8.97;;
417;SDS011;49;48.530;9.200;2024-01-30T03:07:52;16.57;;;9.93;;
417;SDS011;49;48.530;9.200;2024-01-30T03:10:19;16.23;;;9.97;;
417;SDS011;49;48.530;9.200;2024-01-30T03:12:47;17.23;;;8.80;;
417;SDS011;49;48.530;9.200;2024-01-30T03:15:14;14.10;;;8.30;;
417;SDS011;49;48.530;9.200;2024-01-30T03:17:41;12.60;;;7.97;;
417;SDS011;49;48.530;9.200;2024-01-30T03:20:08;18.07;;;9.00;;
417;SDS011;49;48.530;9.200;2024-01-30T03:22:38;14.50;;;8.83;;
417;SDS011;49;48.530;9.200;2024-01-30T03:25:06;17.33;;;9.20;;
417;SDS011;49;48.530;9.200;2024-01-30T03:27:33;12.47;;;8.33;;
417;SDS011;49;48.530;9.200;2024-01-30T03:30:01;12.33;;;8.73;;
417;SDS011;49;48.530;9.200;2024-01-30T03:32:28;14.37;;;9.20;;
417;SDS011;49;48.530;9.200;2024-01-30T03:34:55;14.67;;;9.33;;
417;SDS011;49;48.530;9.200;2024-01-30T03:37:23;22.60;;;9.80;;
417;SDS011;49;48.530;9.200;2024-01-30T03:39:50;15.47;;;9.17;;
417;SDS011;49;48.530;9.200;2024-01-30T03:42:16;13.43;;;8.70;;
417;SDS011;49;48.530;9.200;2024-01-30T03:44:43;12.43;;;8.80;;
417;SDS011;49;48.530;9.200;2024-01-30T03:47:11;15.47;;;9.90;;
417;SDS011;49;48.530;9.200;2024-01-30T03:49:38;14.50;;;9.30;;
417;SDS011;49;48.530;9.200;2024-01-30T03:52:06;13.30;;;8.60;;
417;SDS011;49;48.530;9.200;2024-01-30T03:54:32;17.30;;;8.83;;
417;SDS011;49;48.530;9.200;2024-01-30T03:56:59;12.10;;;8.30;;
417;SDS011;49;48.530;9.200;2024-01-30T03:59:27;16.97;;;9.83;;
417;SDS011;49;48.530;9.200;2024-01-30T04:01:54;14.73;;;10.10;;
417;SDS011;49;48.530;9.200;2024-01-30T04:04:23;17.73;;;9.90;;
417;SDS011;49;48.530;9.200;2024-01-30T04:06:49;12.80;;;7.57;;
417;SDS011;49;48.530;9.200;2024-01-30T04:09:16;13.50;;;9.43;;
417;SDS011;49;48.530;9.200;2024-01-30T04:11:43;21.60;;;10.83;;
417;SDS011;49;48.530;9.200;2024-01-30T04:14:10;17.10;;;9.10;;
417;SDS011;49;48.530;9.200;2024-01-30T04:16:37;12.33;;;9.03;;
417;SDS011;49;48.530;9.200;2024-01-30T04:19:04;13.57;;;8.90;;
417;SDS011;49;48.530;9.200;2024-01-30T04:21:32;13.17;;;8.43;;
417;SDS011;49;48.530;9.200;2024-01-30T04:23:59;15.27;;;9.37;;
417;SDS011;49;48.530;9.200;2024-01-30T04:26:26;17.63;;;10.00;;
417;SDS011;49;48.530;9.200;2024-01-30T04:28:52;16.87;;;8.70;;
417;SDS011;49;48.530;9.200;2024-01-30T04:31:19;22.80;;;10.73;;
417;SDS011;49;48.530;9.200;2024-01-30T04:33:46;16.60;;;10.13;;
417;SDS011;49;48.530;9.200;2024-01-30T04:36:13;16.73;;;9.83;;
417;SDS011;49;48.530;9.200;2024-01-30T04:38:41;15.03;;;9.80;;
417;SDS011;49;48.530;9.200;2024-01-30T04:41:08;15.53;;;9.80;;
417;SDS011;49;48.530;9.200;2024-01-30T04:43:35;14.07;;;8.80;;
417;SDS011;49;48.530;9.200;2024-01-30T04:46:03;12.23;;;8.20;;
417;SDS011;49;48.530;9.200;2024-01-30T04:48:30;12.47;;;9.17;;
417;SDS011;49;48.530;9.200;2024-01-30T04:50:57;20.17;;;10.63;;
417;SDS011;49;48.530;9.200;2024-01-30T04:53:26;13.70;;;8.37;;
417;SDS011;49;48.530;9.200;2024-01-30T04:55:54;12.70;;;8.83;;
417;SDS011;49;48.530;9.200;2024-01-30T04:58:21;13.10;;;8.63;;
417;SDS011;49;48.530;9.200;2024-01-30T05:00:48;16.50;;;8.53;;
417;SDS011;49;48.530;9.200;2024-01-30T05:03:16;15.70;;;10.13;;
417;SDS011;49;48.530;9.200;2024-01-30T05:05:43;16.00;;;9.93;;
417;SDS011;49;48.530;9.200;2024-01-30T05:08:10;17.50;;;10.33;;
417;SDS011;49;48.530;9.200;2024-01-30T05:10:37;14.73;;;9.20;;
417;SDS011;49;48.530;9.200;2024-01-30T05:13:05;16.30;;;9.13;;
417;SDS011;49;48.530;9.200;2024-01-30T05:15:32;12.67;;;8.77;;
417;SDS011;49;48.530;9.200;2024-01-30T05:17:59;15.10;;;8.90;;
417;SDS011;49;48.530;9.200;2024-01-30T05:20:26;15.87;;;9.03;;
417;SDS011;49;48.530;9.200;2024-01-30T05:22:53;12.50;;;8.50;;
417;SDS011;49;48.530;9.200;2024-01-30T05:25:20;11.97;;;7.83;;
417;SDS011;49;48.530;9.200;2024-01-30T05:27:48;16.07;;;8.43;;
417;SDS011;49;48.530;9.200;2024-01-30T05:30:16;15.40;;;8.60;;
417;SDS011;49;48.530;9.200;2024-01-30T05:32:43;12.40;;;8.70;;
417;SDS011;49;48.530;9.200;2024-01-30T05:35:10;14.30;;;8.43;;
417;SDS011;49;48.530;9.200;2024-01-30T05:37:37;14.00;;;8.47;;
417;SDS011;49;48.530;9.200;2024-01-30T05:40:04;15.53;;;8.60;;
417;SDS011;49;48.530;9.200;2024-01-30T05:42:33;13.73;;;9.20;;
417;SDS011;49;48.530;9.200;2024-01-30T05:44:59;13.50;;;8.63;;
417;SDS011;49;48.530;9.200;2024-01-30T05:47:28;14.33;;;9.30;;
417;SDS011;49;48.530;9.200;2024-01-30T05:49:55;13.43;;;8.43;;
417;SDS011;49;48.530;9.200;2024-01-30T05:52:22;12.87;;;8.23;;
417;SDS011;49;48.530;9.200;2024-01-30T05:54:50;12.73;;;8.03;;
417;SDS011;49;48.530;9.200;2024-01-30T05:57:17;16.30;;;8.10;;
417;SDS011;49;48.530;9.200;2024-01-30T05:59:44;25.50;;;8.27;;
417;SDS011;49;48.530;9.200;2024-01-30T06:02:12;12.73;;;8.17;;
417;SDS011;49;48.530;9.200;2024-01-30T06:04:41;10.60;;;7.20;;
417;SDS011;49;48.530;9.200;2024-01-30T06:07:09;13.60;;;7.87;;
417;SDS011;49;48.530;9.200;2024-01-30T06:09:36;16.77;;;9.87;;
417;SDS011;49;48.530;9.200;2024-01-30T06:12:03;13.97;;;9.23;;
417;SDS011;49;48.530;9.200;2024-01-30T06:14:31;12.20;;;7.73;;
417;SDS011;49;48.530;9.200;2024-01-30T06:16:58;10.20;;;7.13;;
417;SDS011;49;48.530;9.200;2024-01-30T06:19:25;11.97;;;8.50;;
417;SDS011;49;48.530;9.200;2024-01-30T06:21:53;16.03;;;9.60;;
417;SDS011;49;48.530;9.200;2024-01-30T06:24:20;13.47;;;9.03;;
417;SDS011;49;48.530;9.200;2024-01-30T06:26:47;14.03;;;9.23;;
417;SDS011;49;48.530;9.200;2024-01-30T06:29:14;20.47;;;9.57;;
417;SDS011;49;48.530;9.200;2024-01-30T06:31:41;16.97;;;10.27;;
417;SDS011;49;48.530;9.200;2024-01-30T06:34:08;15.60;;;9.53;;
417;SDS011;49;48.530;9.200;2024-01-30T06:36:36;16.63;;;10.10;;
417;SDS011;49;48.530;9.200;2024-01-30T06:39:04;17.97;;;10.90;;
417;SDS011;49;48.530;9.200;2024-01-30T06:41:32;12.47;;;7.90;;
417;SDS011;49;48.530;9.200;2024-01-30T06:44:01;19.10;;;9.93;;
417;SDS011;49;48.530;9.200;2024-01-30T06:46:29;14.17;;;8.63;;
417;SDS011;49;48.530;9.200;2024-01-30T06:48:55;12.60;;;8.80;;
417;SDS011;49;48.530;9.200;2024-01-30T06:51:22;11.80;;;8.27;;
417;SDS011;49;48.530;9.200;2024-01-30T06:53:49;14.00;;;8.30;;
417;SDS011;49;48.530;9.200;2024-01-30T06:56:17;13.83;;;8.00;;
417;SDS011;49;48.530;9.200;2024-01-30T06:58:46;12.37;;;9.10;;
417;SDS011;49;48.530;9.200;2024-01-30T07:01:13;13.00;;;9.03;;
417;SDS011;49;48.530;9.200;2024-01-30T07:03:40;14.63;;;9.40;;
417;SDS011;49;48.530;9.200;2024-01-30T07:06:08;17.00;;;9.90;;
417;SDS011;49;48.530;9.200;2024-01-30T07:08:35;16.77;;;9.40;;
417;SDS011;49;48.530;9.200;2024-01-30T07:11:04;14.60;;;9.30;;
417;SDS011;49;48.530;9.200;2024-01-30T07:13:32;12.83;;;9.43;;
417;SDS011;49;48.530;9.200;2024-01-30T07:16:01;18.17;;;11.97;;
417;SDS011;49;48.530;9.200;2024-01-30T07:18:28;16.00;;;10.47;;
417;SDS011;49;48.530;9.200;2024-01-30T07:20:55;15.73;;;11.10;;
417;SDS011;49;48.530;9.200;2024-01-30T07:23:21;11.70;;;8.10;;
417;SDS011;49;48.530;9.200;2024-01-30T07:25:48;18.10;;;8.77;;
417;SDS011;49;48.530;9.200;2024-01-30T07:28:15;20.13;;;11.63;;
417;SDS011;49;48.530;9.200;2024-01-30T07:30:44;13.73;;;9.70;;
417;SDS011;49;48.530;9.200;2024-01-30T07:33:13;17.97;;;10.77;;
417;SDS011;49;48.530;9.200;2024-01-30T07:35:40;19.73;;;11.37;;
417;SDS011;49;48.530;9.200;2024-01-30T07:38:07;16.43;;;9.70;;
417;SDS011;49;48.530;9.200;2024-01-30T07:40:34;15.43;;;9.97;;
417;SDS011;49;48.530;9.200;2024-01-30T07:43:01;13.63;;;9.00;;
417;SDS011;49;48.530;9.200;2024-01-30T07:45:28;15.03;;;9.00;;
417;SDS011;49;48.530;9.200;2024-01-30T07:47:59;15.73;;;9.57;;
417;SDS011;49;48.530;9.200;2024-01-30T07:50:26;19.30;;;10.30;;
417;SDS011;49;48.530;9.200;2024-01-30T07:52:53;15.87;;;10.03;;
417;SDS011;49;48.530;9.200;2024-01-30T07:55:20;18.20;;;9.60;;
417;SDS011;49;48.530;9.200;2024-01-30T07:57:49;19.80;;;9.47;;
417;SDS011;49;48.530;9.200;2024-01-30T08:00:17;16.50;;;9.50;;
417;SDS011;49;48.530;9.200;2024-01-30T08:02:44;15.93;;;9.97;;
417;SDS011;49;48.530;9.200;2024-01-30T08:05:13;18.73;;;8.70;;
417;SDS011;49;48.530;9.200;2024-01-30T08:07:40;12.00;;;8.10;;
417;SDS011;49;48.530;9.200;2024-01-30T08:10:07;13.63;;;9.13;;
417;SDS011;49;48.530;9.200;2024-01-30T08:12:35;14.13;;;9.77;;
417;SDS011;49;48.530;9.200;2024-01-30T08:15:02;19.83;;;10.10;;
417;SDS011;49;48.530;9.200;2024-01-30T08:17:29;14.20;;;9.70;;
417;SDS011;49;48.530;9.200;2024-01-30T08:19:56;14.87;;;9.63;;
417;SDS011;49;48.530;9.200;2024-01-30T08:22:24;15.50;;;9.40;;
417;SDS011;49;48.530;9.200;2024-01-30T08:24:51;13.60;;;9.40;;
417;SDS011;49;48.530;9.200;2024-01-30T08:27:18;12.73;;;9.23;;
417;SDS011;49;48.530;9.200;2024-01-30T08:29:45;17.50;;;10.20;;
417;SDS011;49;48.530;9.200;2024-01-30T08:32:12;21.90;;;11.80;;
417;SDS011;49;48.530;9.200;2024-01-30T08:34:38;15.20;;;8.53;;
417;SDS011;49;48.530;9.200;2024-01-30T08:37:05;14.97;;;9.50;;
417;SDS011;49;48.530;9.200;2024-01-30T08:39:34;20.90;;;10.50;;
417;SDS011;49;48.530;9.200;2024-01-30T08:42:00;14.50;;;9.83;;
417;SDS011;49;48.530;9.200;2024-01-30T08:44:27;20.73;;;11.33;;
417;SDS011;49;48.530;9.200;2024-01-30T08:46:54;15.03;;;10.10;;
417;SDS011;49;48.530;9.200;2024-01-30T08:49:21;13.77;;;9.30;;
417;SDS011;49;48.530;9.200;2024-01-30T08:51:48;20.73;;;8.40;;
417;SDS011;49;48.530;9.200;2024-01-30T08:54:15;14.10;;;8.57;;
417;SDS011;49;48.530;9.200;2024-01-30T08:56:44;15.90;;;9.63;;
417;SDS011;49;48.530;9.200;2024-01-30T08:59:10;15.63;;;9.70;;
417;SDS011;49;48.530;9.200;2024-01-30T09:01:37;13.33;;;9.30;;
417;SDS011;49;48.530;9.200;2024-01-30T09:04:04;14.60;;;9.60;;
417;SDS011;49;48.530;9.200;2024-01-30T09:06:31;14.47;;;9.20;;
417;SDS011;49;48.530;9.200;2024-01-30T09:08:58;14.00;;;9.10;;
417;SDS011;49;48.530;9.200;2024-01-30T09:11:25;12.87;;;9.67;;
417;SDS011;49;48.530;9.200;2024-01-30T09:13:53;13.30;;;8.30;;
417;SDS011;49;48.530;9.200;2024-01-30T09:16:20;16.97;;;10.73;;
417;SDS011;49;48.530;9.200;2024-01-30T09:18:46;16.70;;;10.00;;
417;SDS011;49;48.530;9.200;2024-01-30T09:21:13;13.40;;;9.20;;
417;SDS011;49;48.530;9.200;2024-01-30T09:23:40;17.37;;;10.50;;
417;SDS011;49;48.530;9.200;2024-01-30T09:26:07;14.77;;;9.67;;
417;SDS011;49;48.530;9.200;2024-01-30T09:28:34;16.97;;;10.60;;
417;SDS011;49;48.530;9.200;2024-01-30T09:31:02;15.10;;;9.60;;
417;SDS011;49;48.530;9.200;2024-01-30T09:33:29;15.73;;;9.57;;
417;SDS011;49;48.530;9.200;2024-01-30T09:35:56;14.40;;;9.17;;
417;SDS011;49;48.530;9.200;2024-01-30T09:38:23;16.17;;;10.10;;
417;SDS011;49;48.530;9.200;2024-01-30T09:40:51;14.93;;;9.27;;
417;SDS011;49;48.530;9.200;2024-01-30T09:43:22;14.07;;;9.20;;
417;SDS011;49;48.530;9.200;2024-01-30T09:45:49;14.13;;;8.90;;
417;SDS011;49;48.530;9.200;2024-01-30T09:48:18;12.47;;;7.63;;
417;SDS011;49;48.530;9.200;2024-01-30T09:50:45;16.90;;;9.30;;
417;SDS011;49;48.530;9.200;2024-01-30T09:53:13;16.00;;;10.60;;
417;SDS011;49;48.530;9.200;2024-01-30T09:55:42;20.37;;;10.00;;
417;SDS011;49;48.530;9.200;2024-01-30T09:58:09;14.80;;;9.37;;
417;SDS011;49;48.530;9.200;2024-01-30T10:00:36;14.03;;;9.13;;
417;SDS011;49;48.530;9.200;2024-01-30T10:03:03;18.33;;;8.93;;
417;SDS011;49;48.530;9.200;2024-01-30T10:05:32;14.47;;;8.73;;
417;SDS011;49;48.530;9.200;2024-01-30T10:08:05;17.53;;;9.60;;
417;SDS011;49;48.530;9.200;2024-01-30T10:10:33;14.53;;;8.90;;
417;SDS011;49;48.530;9.200;2024-01-30T10:13:00;12.97;;;7.97;;
417;SDS011;49;48.530;9.200;2024-01-30T10:15:27;15.53;;;9.53;;
417;SDS011;49;48.530;9.200;2024-01-30T10:17:54;18.17;;;10.03;;
417;SDS011;49;48.530;9.200;2024-01-30T10:20:21;14.23;;;10.40;;
417;SDS011;49;48.530;9.200;2024-01-30T10:22:50;16.30;;;10.70;;
417;SDS011;49;48.530;9.200;2024-01-30T10:25:17;19.63;;;9.10;;
417;SDS011;49;48.530;9.200;2024-01-30T10:27:44;16.00;;;9.40;;
417;SDS011;49;48.530;9.200;2024-01-30T10:30:12;20.30;;;10.83;;
417;SDS011;49;48.530;9.200;2024-01-30T10:32:39;15.67;;;10.70;;
417;SDS011;49;48.530;9.200;2024-01-30T10:35:06;14.40;;;10.67;;
417;SDS011;49;48.530;9.200;2024-01-30T10:37:34;18.23;;;10.80;;
417;SDS011;49;48.530;9.200;2024-01-30T10:40:02;15.63;;;10.20;;
417;SDS011;49;48.530;9.200;2024-01-30T10:42:31;20.80;;;10.80;;
417;SDS011;49;48.530;9.200;2024-01-30T10:45:00;24.63;;;10.60;;
417;SDS011;49;48.530;9.200;2024-01-30T10:47:32;18.57;;;10.60;;
417;SDS011;49;48.530;9.200;2024-01-30T10:50:00;15.20;;;10.70;;
417;SDS011;49;48.530;9.200;2024-01-30T10:52:28;17.40;;;10.80;;
417;SDS011;49;48.530;9.200;2024-01-30T10:54:56;14.87;;;10.20;;
417;SDS011;49;48.530;9.200;2024-01-30T10:57:24;16.80;;;9.70;;
417;SDS011;49;48.530;9.200;2024-01-30T10:59:53;12.70;;;9.07;;
417;SDS011;49;48.530;9.200;2024-01-30T11:02:23;11.47;;;9.20;;
417;SDS011;49;48.530;9.200;2024-01-30T11:04:54;25.90;;;14.30;;
417;SDS011;49;48.530;9.200;2024-01-30T11:07:24;21.30;;;9.63;;
417;SDS011;49;48.530;9.200;2024-01-30T11:09:51;16.53;;;8.93;;
417;SDS011;49;48.530;9.200;2024-01-30T11:12:22;15.07;;;9.70;;
417;SDS011;49;48.530;9.200;2024-01-30T11:15:01;13.70;;;8.93;;
417;SDS011;49;48.530;9.200;2024-01-30T11:17:39;14.07;;;9.80;;
417;SDS011;49;48.530;9.200;2024-01-30T11:20:09;19.83;;;9.30;;
417;SDS011;49;48.530;9.200;2024-01-30T11:22:36;15.70;;;9.73;;
417;SDS011;49;48.530;9.200;2024-01-30T11:25:04;16.90;;;8.47;;
417;SDS011;49;48.530;9.200;2024-01-30T11:27:33;26.83;;;9.93;;
417;SDS011;49;48.530;9.200;2024-01-30T11:30:03;17.40;;;9.30;;
417;SDS011;49;48.530;9.200;2024-01-30T11:32:33;15.90;;;8.93;;
417;SDS011;49;48.530;9.200;2024-01-30T11:34:59;16.00;;;9.87;;
417;SDS011;49;48.530;9.200;2024-01-30T11:37:28;15.07;;;9.40;;
417;SDS011;49;48.530;9.200;2024-01-30T11:39:57;19.23;;;9.60;;
417;SDS011;49;48.530;9.200;2024-01-30T11:42:25;15.67;;;9.53;;
417;SDS011;49;48.530;9.200;2024-01-30T11:44:54;25.73;;;10.23;;
417;SDS011;49;48.530;9.200;2024-01-30T11:47:22;18.03;;;10.27;;
417;SDS011;49;48.530;9.200;2024-01-30T11:49:49;17.20;;;10.13;;
417;SDS011;49;48.530;9.200;2024-01-30T11:52:16;19.53;;;10.33;;
417;SDS011;49;48.530;9.200;2024-01-30T11:54:43;18.47;;;10.67;;
417;SDS011;49;48.530;9.200;2024-01-30T11:57:10;16.23;;;8.90;;
417;SDS011;49;48.530;9.200;2024-01-30T11:59:37;12.30;;;9.13;;
417;SDS011;49;48.530;9.200;2024-01-30T12:02:05;15.43;;;9.10;;
417;SDS011;49;48.530;9.200;2024-01-30T12:04:33;13.27;;;8.63;;
417;SDS011;49;48.530;9.200;2024-01-30T12:07:00;16.80;;;8.40;;
417;SDS011;49;48.530;9.200;2024-01-30T12:09:27;12.47;;;8.37;;
417;SDS011;49;48.530;9.200;2024-01-30T12:11:54;15.47;;;8.77;;
417;SDS011;49;48.530;9.200;2024-01-30T12:14:22;14.07;;;8.47;;
417;SDS011;49;48.530;9.200;2024-01-30T12:16:51;18.90;;;8.07;;
417;SDS011;49;48.530;9.200;2024-01-30T12:19:23;9.80;;;7.37;;
417;SDS011;49;48.530;9.200;2024-01-30T12:21:59;18.63;;;7.87;;
417;SDS011;49;48.530;9.200;2024-01-30T12:24:26;12.17;;;7.83;;
417;SDS011;49;48.530;9.200;2024-01-30T12:26:56;14.57;;;7.67;;
417;SDS011;49;48.530;9.200;2024-01-30T12:29:23;15.83;;;9.00;;
417;SDS011;49;48.530;9.200;2024-01-30T12:31:52;12.13;;;8.57;;
417;SDS011;49;48.530;9.200;2024-01-30T12:34:19;18.20;;;8.27;;
417;SDS011;49;48.530;9.200;2024-01-30T12:36:48;19.83;;;8.33;;
417;SDS011;49;48.530;9.200;2024-01-30T12:39:15;20.90;;;8.80;;
417;SDS011;49;48.530;9.200;2024-01-30T12:41:42;12.93;;;8.80;;
417;SDS011;49;48.530;9.200;2024-01-30T12:44:09;16.63;;;9.30;;
417;SDS011;49;48.530;9.200;2024-01-30T12:46:36;15.70;;;9.23;;
417;SDS011;49;48.530;9.200;2024-01-30T12:49:03;18.97;;;8.60;;
417;SDS011;49;48.530;9.200;2024-01-30T12:51:30;17.03;;;9.90;;
417;SDS011;49;48.530;9.200;2024-01-30T12:54:05;16.90;;;9.90;;
417;SDS011;49;48.530;9.200;2024-01-30T12:56:32;29.90;;;9.30;;
417;SDS011;49;48.530;9.200;2024-01-30T12:58:59;14.50;;;8.97;;
417;SDS011;49;48.530;9.200;2024-01-30T13:01:26;14.43;;;8.90;;
417;SDS011;49;48.530;9.200;2024-01-30T13:03:53;11.27;;;7.60;;
417;SDS011;49;48.530;9.200;2024-01-30T13:06:23;17.40;;;8.10;;
417;SDS011;49;48.530;9.200;2024-01-30T13:08:50;15.07;;;7.70;;
417;SDS011;49;48.530;9.200;2024-01-30T13:11:18;15.80;;;7.53;;
417;SDS011;49;48.530;9.200;2024-01-30T13:13:45;11.73;;;7.33;;
417;SDS011;49;48.530;9.200;2024-01-30T13:16:12;19.87;;;6.73;;
417;SDS011;49;48.530;9.200;2024-01-30T13:18:39;15.70;;;7.20;;
417;SDS011;49;48.530;9.200;2024-01-30T13:21:06;12.40;;;7.33;;
417;SDS011;49;48.530;9.200;2024-01-30T13:23:33;12.23;;;6.40;;
417;SDS011;49;48.530;9.200;2024-01-30T13:26:00;10.83;;;6.97;;
417;SDS011;49;48.530;9.200;2024-01-30T13:28:28;16.20;;;7.80;;
417;SDS011;49;48.530;9.200;2024-01-30T13:30:55;17.13;;;8.30;;
417;SDS011;49;48.530;9.200;2024-01-30T13:33:22;16.80;;;8.40;;
417;SDS011;49;48.530;9.200;2024-01-30T13:35:49;22.53;;;10.13;;
417;SDS011;49;48.530;9.200;2024-01-30T13:38:16;19.83;;;9.13;;
417;SDS011;49;48.530;9.200;2024-01-30T13:40:43;16.43;;;8.10;;
417;SDS011;49;48.530;9.200;2024-01-30T13:43:09;14.43;;;7.47;;
417;SDS011;49;48.530;9.200;2024-01-30T13:45:38;15.07;;;7.53;;
417;SDS011;49;48.530;9.200;2024-01-30T13:48:07;19.97;;;7.57;;
417;SDS011;49;48.530;9.200;2024-01-30T13:50:33;11.50;;;7.00;;
417;SDS011;49;48.530;9.200;2024-01-30T13:53:01;15.70;;;7.00;;
417;SDS011;49;48.530;9.200;2024-01-30T13:55:29;13.20;;;7.50;;
417;SDS011;49;48.530;9.200;2024-01-30T13:57:56;17.60;;;7.40;;
417;SDS011;49;48.530;9.200;2024-01-30T14:00:23;10.83;;;6.73;;
417;SDS011;49;48.530;9.200;2024-01-30T14:02:52;11.43;;;7.37;;
417;SDS011;49;48.530;9.200;2024-01-30T14:05:20;12.07;;;7.67;;
417;SDS011;49;48.530;9.200;2024-01-30T14:07:47;12.77;;;8.30;;
417;SDS011;49;48.530;9.200;2024-01-30T14:10:15;21.87;;;7.70;;
417;SDS011;49;48.530;9.200;2024-01-30T14:12:42;15.43;;;9.53;;
417;SDS011;49;48.530;9.200;2024-01-30T14:15:09;19.37;;;12.33;;
417;SDS011;49;48.530;9.200;2024-01-30T14:17:37;22.10;;;12.70;;
417;SDS011;49;48.530;9.200;2024-01-30T14:20:06;22.00;;;10.90;;
417;SDS011;49;48.530;9.200;2024-01-30T14:22:34;20.00;;;9.90;;
417;SDS011;49;48.530;9.200;2024-01-30T14:25:01;13.97;;;8.60;;
417;SDS011;49;48.530;9.200;2024-01-30T14:27:28;14.23;;;7.37;;
417;SDS011;49;48.530;9.200;2024-01-30T14:29:55;14.20;;;7.57;;
417;SDS011;49;48.530;9.200;2024-01-30T14:32:23;15.07;;;8.20;;
417;SDS011;49;48.530;9.200;2024-01-30T14:34:50;15.27;;;8.17;;
417;SDS011;49;48.530;9.200;2024-01-30T14:37:18;20.50;;;8.83;;
417;SDS011;49;48.530;9.200;2024-01-30T14:39:46;19.57;;;7.43;;
417;SDS011;49;48.530;9.200;2024-01-30T14:42:14;10.07;;;6.70;;
417;SDS011;49;48.530;9.200;2024-01-30T14:44:41;12.30;;;7.20;;
417;SDS011;49;48.530;9.200;2024-01-30T14:47:08;12.13;;;6.60;;
417;SDS011;49;48.530;9.200;2024-01-30T14:49:35;17.10;;;7.07;;
417;SDS011;49;48.530;9.200;2024-01-30T14:52:02;17.57;;;6.57;;
417;SDS011;49;48.530;9.200;2024-01-30T14:54:31;11.80;;;6.80;;
417;SDS011;49;48.530;9.200;2024-01-30T14:56:57;9.43;;;6.57;;
417;SDS011;49;48.530;9.200;2024-01-30T14:59:26;15.63;;;6.33;;
417;SDS011;49;48.530;9.200;2024-01-30T15:01:53;19.33;;;7.10;;
417;SDS011;49;48.530;9.200;2024-01-30T15:04:19;12.30;;;6.87;;
417;SDS011;49;48.530;9.200;2024-01-30T15:06:46;18.10;;;6.93;;
417;SDS011;49;48.530;9.200;2024-01-30T15:09:14;13.83;;;7.33;;
417;SDS011;49;48.530;9.200;2024-01-30T15:11:43;14.97;;;7.90;;
417;SDS011;49;48.530;9.200;2024-01-30T15:14:10;21.93;;;8.20;;
417;SDS011;49;48.530;9.200;2024-01-30T15:16:37;24.07;;;8.40;;
417;SDS011;49;48.530;9.200;2024-01-30T15:19:04;24.57;;;9.10;;
417;SDS011;49;48.530;9.200;2024-01-30T15:21:31;23.90;;;9.80;;
417;SDS011;49;48.530;9.200;2024-01-30T15:23:58;27.37;;;9.40;;
417;SDS011;49;48.530;9.200;2024-01-30T15:26:25;17.03;;;8.40;;
417;SDS011;49;48.530;9.200;2024-01-30T15:28:53;23.43;;;9.60;;
417;SDS011;49;48.530;9.200;2024-01-30T15:31:20;23.50;;;10.47;;
417;SDS011;49;48.530;9.200;2024-01-30T15:33:47;27.43;;;10.07;;
417;SDS011;49;48.530;9.200;2024-01-30T15:36:13;19.07;;;9.27;;
417;SDS011;49;48.530;9.200;2024-01-30T15:38:41;32.07;;;8.70;;
417;SDS011;49;48.530;9.200;2024-01-30T15:41:08;34.13;;;15.47;;
417;SDS011;49;48.530;9.200;2024-01-30T15:43:35;29.53;;;12.10;;